North Merrick, New York
Current Conditions -  °F | °C
As of 7:53 AM on Sunday 23 Nov 2014 (Local Time) from KFRG Reporting Station
Overcast Overcast  
Wind Chill: 40°   Ceiling: 9500
Heat Index: 45°   Visibility: 10mi
Dew Point: 26°   Wind: 10mph
Humidity: 48%   Direction: 240°WSW
Pressure: 30.22"   Gusts: NA
Location:  40.6667°N, 73.5562°W
Report Text: KFRG 231253Z 24009KT 10SM BKN095 OVC120 07/M03 A3022 RMK AO2 SLP233 T00721033
Loading
Personal Weather Stations






























Interactive Weather Map New forecast layout! Learn more

10-Day Weather Forecast

Advertisements
Track Severe Weather on mobile